Detall de PIREP

Printer-friendly versionPDF version

[2014/07/18 15:34:00]
Flight IATA:CT2301
Pilot Number:012
Company ICAO:CAT
Aircraft Type:MD11/E
PAX:261
Aircraft Registration:PAX
Departing Airport: LIBD
Destination Airport: LIEA
Alternate Airport:LIEO
Online: VATSIM
Route:TOPNO UP748 VEGAN UM603 MOROB
Flight Level:F290
No Slew and time accel
No pause
Crash detect
Detect pilot in Cockpit between each 30 and 45 minutes
15:34 Zero fuel Weight: 418406 Lbs, Fuel Weight: 52636 Lbs
15:34 VATSIM:LIBD 181520Z 36013KT CAVOK 28/19 Q1014
15:34 VATSIM:LIEA 181520Z 04013KT CAVOK 33/10 Q1017
15:35 Parking Brakes off
15:41 Take-off
15:41 Take off Weight: 469622 Lbs
15:41 Wind: 356º @ 013 Knots Heading: 069º
15:41 POS N41º 08´ 21´´ E016º 45´ 46´´
15:41 Gear Up: 200 Knots
15:41 Flaps:3 at 200 Knots
15:43 Flaps:2 at 249 Knots
15:43 Flaps:1 at 249 Knots
15:43 Flaps:3 at 249 Knots
15:43 Flaps:2 at 249 Knots
15:43 Flaps:1 at 250Knots
15:43 Flaps:0 at 250 Knots
15:54 TOC
15:54 Fuel Weight: 42685 Lb
15:56 Wind:329º@024 Knots Heading: 237º Ground Speed: 502 Knots Altitude 29055 ft
16:11 Wind:337º@046 Knots Heading: 291º Ground Speed: 473 Knots Altitude 29048 ft
16:26 Wind:319º@030 Knots Heading: 268º Ground Speed: 484 Knots Altitude 29078 ft
16:27 TOD
16:27 Fuel Weight: 32786 Lb
16:39 Flaps:1 at 264 Knots
16:40 Flaps:2 at 256 Knots
16:40 Flaps:3 at 254 Knots
16:41 Wind:272º@000 Knots Heading: 200º Ground Speed: 279 Knots Altitude 7929 ft
16:43 Flaps:4 at 221 Knots
16:43 Flaps:3 at 219 Knots
16:43 Flaps:4 at 218 Knots
16:43 Gear Down: 216 Knots
16:43 Flaps:5 at 214 Knots
16:43 Flaps:6 at 211 Knots
16:46 Flaps:7 at 189 Knots
16:48 Flaps:6 at 190 Knots
16:49 Flaps:7 at 189 Knots
16:49 TouchDown:Rate -182 ft/min Speed: 164 Knots
16:50 VATSIM:LIEA 181620Z 04010KT 010V070 CAVOK 31/12 Q1017
16:50 Land
16:50 Wind:028º@010 Knots
16:50 Heading: 023º
16:50 Flight Duration: 01:09
16:50 Landing Weight: 446450 Lbs
16:50 POS N40º 37´ 58´´ E008º 17´ 28´´
16:53 Parking brakes on
16:53 Block to Block Duration: 01:18
16:53 Final Fuel: 27722 Lbls
16:53 Spent Fuel: 24914 Lbls
16:53 Flight Length: 464 NM
16:53 TOD Land Length: 118 NM

Exportar CSV

Powered by Drupal - Modified by Danger4k